Time;durP1;ratioP1;P1;durP2;ratioP2;P2;SDS_P1;SDS_P2;PMS_P1;PMS_P2;Temp;Humidity;BMP_temperature;BMP_pressure;BME280_temperature;BME280_humidity;BME280_pressure;Samples;Min_cycle;Max_cycle;Signal;HPM_P1;HPM_P2
2022/04/17 00:00:11;;;;;;;3.30;1.70;;;7.80;55.70;;;;;;4971781;28;20395;-85
2022/04/17 00:02:37;;;;;;;2.13;1.92;;;7.80;55.90;;;;;;4973324;28;20172;-85
2022/04/17 00:05:07;;;;;;;1.85;1.65;;;7.80;56.00;;;;;;4956416;28;20118;-87
2022/04/17 00:07:33;;;;;;;2.55;1.88;;;7.80;56.40;;;;;;4972797;28;20515;-86
2022/04/17 00:09:59;;;;;;;3.05;1.52;;;7.70;56.50;;;;;;4973224;28;20031;-85
2022/04/17 00:12:26;;;;;;;4.90;1.88;;;7.70;56.00;;;;;;4973122;28;20023;-86
2022/04/17 00:14:54;;;;;;;2.10;1.88;;;7.60;56.50;;;;;;4973032;28;20038;-86
2022/04/17 00:17:20;;;;;;;2.17;1.88;;;7.60;56.70;;;;;;4955310;28;20169;-87
2022/04/17 00:19:46;;;;;;;2.45;1.48;;;7.50;57.00;;;;;;4973346;28;20105;-86
2022/04/17 00:22:13;;;;;;;3.03;2.00;;;7.60;57.00;;;;;;4973040;28;20517;-86
2022/04/17 00:24:39;;;;;;;3.90;1.92;;;7.60;57.00;;;;;;4971624;28;20030;-86
2022/04/17 00:27:05;;;;;;;2.67;1.98;;;7.50;57.30;;;;;;4972647;28;20029;-86
2022/04/17 00:29:30;;;;;;;3.35;1.98;;;7.50;57.30;;;;;;4971937;28;20027;-86
2022/04/17 00:31:59;;;;;;;4.95;1.80;;;7.40;57.70;;;;;;4972309;28;20053;-85
2022/04/17 00:34:26;;;;;;;2.97;1.90;;;7.40;57.60;;;;;;4973109;28;20027;-85
2022/04/17 00:36:52;;;;;;;3.47;1.90;;;7.40;57.90;;;;;;4971311;28;20121;-86
2022/04/17 00:39:18;;;;;;;5.25;2.17;;;7.40;58.20;;;;;;4973091;28;20030;-85
2022/04/17 00:41:43;;;;;;;3.38;1.88;;;7.30;58.30;;;;;;4972475;28;20027;-86
2022/04/17 00:44:13;;;;;;;3.88;2.40;;;7.40;58.30;;;;;;4973009;28;20034;-84
2022/04/17 00:46:40;;;;;;;4.43;2.10;;;7.30;58.30;;;;;;4974524;28;20090;-86
2022/04/17 00:49:09;;;;;;;3.15;1.80;;;7.30;58.70;;;;;;4976651;28;20498;-86
2022/04/17 00:51:36;;;;;;;4.28;2.08;;;7.30;59.20;;;;;;4974707;28;20034;-87
2022/04/17 00:54:07;;;;;;;5.55;2.05;;;7.20;58.80;;;;;;4976483;28;20124;-86
2022/04/17 00:56:34;;;;;;;4.88;2.28;;;7.20;59.10;;;;;;4976840;28;20117;-84
2022/04/17 00:59:01;;;;;;;5.93;2.42;;;7.20;59.10;;;;;;4976303;28;20031;-86
2022/04/17 01:01:38;;;;;;;2.78;2.17;;;7.10;59.30;;;;;;4976518;28;20125;-86
2022/04/17 01:04:04;;;;;;;3.45;2.20;;;7.10;59.30;;;;;;4976428;28;20030;-86
2022/04/17 01:06:31;;;;;;;2.65;2.10;;;7.10;59.80;;;;;;4976375;28;20050;-84
2022/04/17 01:08:58;;;;;;;5.00;2.67;;;7.00;59.60;;;;;;4976510;28;20049;-84
2022/04/17 01:11:24;;;;;;;5.03;2.30;;;7.00;59.70;;;;;;4975844;28;20106;-83
2022/04/17 01:13:52;;;;;;;5.07;2.88;;;7.00;60.10;;;;;;4976089;28;20022;-86
2022/04/17 01:16:19;;;;;;;2.95;2.20;;;7.00;60.00;;;;;;4976187;28;20058;-86
2022/04/17 01:19:10;;;;;;;6.57;2.42;;;7.00;60.40;;;;;;4975896;28;20058;-86
2022/04/17 01:21:36;;;;;;;3.10;2.00;;;6.90;60.30;;;;;;4975731;28;20452;-84
2022/04/17 01:26:57;;;;;;;3.90;1.92;;;6.90;60.30;;;;;;4975672;28;20483;-86
2022/04/17 01:29:31;;;;;;;5.15;2.08;;;6.90;60.60;;;;;;4973301;28;20027;-86
2022/04/17 01:32:01;;;;;;;2.97;2.15;;;6.80;60.70;;;;;;4975760;28;20027;-85
2022/04/17 01:34:27;;;;;;;2.83;2.17;;;6.80;61.10;;;;;;4975815;28;20050;-85
2022/04/17 01:36:53;;;;;;;4.50;2.47;;;6.80;61.20;;;;;;4975459;28;20047;-85
2022/04/17 01:39:19;;;;;;;3.92;2.10;;;6.70;61.10;;;;;;4974333;28;20039;-86
2022/04/17 01:41:45;;;;;;;4.90;2.03;;;6.80;61.20;;;;;;4974032;28;20035;-86
2022/04/17 01:44:11;;;;;;;3.83;2.42;;;6.70;61.30;;;;;;4975942;28;20081;-84
2022/04/17 01:46:37;;;;;;;4.80;2.08;;;6.60;61.70;;;;;;4974131;28;20298;-86
2022/04/17 01:49:05;;;;;;;3.00;2.17;;;6.60;61.80;;;;;;4975761;28;20034;-84
2022/04/17 01:51:38;;;;;;;4.03;1.90;;;6.50;62.00;;;;;;4975227;28;20031;-84
2022/04/17 01:54:09;;;;;;;3.53;2.55;;;6.50;61.80;;;;;;4975155;28;20045;-85
2022/04/17 01:56:36;;;;;;;5.43;2.40;;;6.50;62.00;;;;;;4975404;28;20081;-86
2022/04/17 01:59:03;;;;;;;3.83;2.55;;;6.50;62.20;;;;;;4973500;28;20377;-85
2022/04/17 02:01:28;;;;;;;3.05;2.35;;;6.50;62.20;;;;;;4975118;28;20389;-85
2022/04/17 02:03:54;;;;;;;4.10;2.30;;;6.50;62.50;;;;;;4975165;28;20027;-85
2022/04/17 02:06:20;;;;;;;4.55;2.38;;;6.40;62.30;;;;;;4975121;28;20110;-87
2022/04/17 02:08:46;;;;;;;4.78;2.45;;;6.40;62.50;;;;;;4975724;28;20047;-85
2022/04/17 02:11:12;;;;;;;4.43;2.50;;;6.40;62.50;;;;;;4957443;28;20027;-85
2022/04/17 02:13:38;;;;;;;3.38;2.03;;;6.40;62.50;;;;;;4957998;28;20023;-85
2022/04/17 02:16:05;;;;;;;3.97;2.05;;;6.40;62.50;;;;;;4975229;28;20027;-86
2022/04/17 02:18:31;;;;;;;3.80;2.60;;;6.30;62.70;;;;;;4965317;28;20376;-87
2022/04/17 02:20:56;;;;;;;4.72;2.25;;;6.30;62.50;;;;;;4974935;28;20029;-87
2022/04/17 02:23:22;;;;;;;6.35;2.45;;;6.30;63.10;;;;;;4973909;28;20027;-87
2022/04/17 02:25:48;;;;;;;3.85;2.13;;;6.20;63.00;;;;;;4974924;28;20023;-87
2022/04/17 02:28:14;;;;;;;3.53;2.35;;;6.20;63.00;;;;;;4974867;28;20033;-86
2022/04/17 02:30:40;;;;;;;3.53;2.20;;;6.20;63.00;;;;;;4974365;28;20034;-87
2022/04/17 02:33:06;;;;;;;4.30;2.35;;;6.20;63.10;;;;;;4974818;28;20027;-87
2022/04/17 02:35:32;;;;;;;2.80;2.10;;;6.20;63.00;;;;;;4975096;28;20037;-87
2022/04/17 02:37:57;;;;;;;3.00;2.25;;;6.20;63.00;;;;;;4974592;28;20387;-86
2022/04/17 02:40:23;;;;;;;3.35;2.08;;;6.10;63.40;;;;;;4974578;28;20042;-86
2022/04/17 02:42:49;;;;;;;5.78;2.50;;;6.20;63.40;;;;;;4974693;28;20508;-87
2022/04/17 02:45:16;;;;;;;6.53;2.30;;;6.10;63.40;;;;;;4974312;28;20030;-87
2022/04/17 02:47:51;;;;;;;6.25;2.10;;;6.10;64.40;;;;;;4974220;28;20026;-87
2022/04/17 02:50:19;;;;;;;3.40;2.45;;;6.00;64.10;;;;;;4974305;28;20030;-87
2022/04/17 02:52:45;;;;;;;4.82;2.45;;;5.90;64.50;;;;;;4974669;28;20022;-87
2022/04/17 02:55:11;;;;;;;4.15;2.63;;;5.90;64.30;;;;;;4974256;28;20022;-87
2022/04/17 02:57:37;;;;;;;3.13;2.10;;;5.90;64.20;;;;;;4972745;28;20447;-87
2022/04/17 03:00:08;;;;;;;4.60;2.50;;;5.90;64.30;;;;;;4972712;28;20038;-86
2022/04/17 03:05:38;;;;;;;3.67;2.13;;;5.90;64.60;;;;;;4974378;28;20038;-86
2022/04/17 03:08:08;;;;;;;4.05;2.20;;;5.80;64.90;;;;;;4973892;28;20038;-87
2022/04/17 03:10:36;;;;;;;6.22;2.60;;;5.80;64.50;;;;;;4972831;28;20018;-87
2022/04/17 03:13:03;;;;;;;4.60;2.47;;;5.80;64.90;;;;;;4974099;28;20030;-87
2022/04/17 03:15:28;;;;;;;2.60;2.40;;;5.80;65.10;;;;;;4974023;28;20027;-84
2022/04/17 03:17:54;;;;;;;11.00;2.63;;;5.80;64.90;;;;;;4973584;28;20038;-84
2022/04/17 03:20:20;;;;;;;3.85;2.67;;;5.70;65.10;;;;;;4973513;28;20026;-86
2022/04/17 03:22:45;;;;;;;3.20;2.38;;;5.80;65.50;;;;;;4973686;28;20538;-85
2022/04/17 03:25:11;;;;;;;4.22;1.85;;;5.70;65.20;;;;;;4972623;28;20031;-84
2022/04/17 03:27:37;;;;;;;4.15;2.55;;;5.70;65.20;;;;;;4972172;28;20086;-86
2022/04/17 03:30:04;;;;;;;2.65;2.08;;;5.70;65.40;;;;;;4972834;28;20427;-86
2022/04/17 03:32:31;;;;;;;2.35;2.15;;;5.60;65.80;;;;;;4973518;28;20027;-86
2022/04/17 03:34:57;;;;;;;5.80;2.45;;;5.60;65.80;;;;;;4973531;28;20035;-85
2022/04/17 03:37:23;;;;;;;4.22;2.50;;;5.60;65.80;;;;;;4973640;28;20030;-85
2022/04/17 03:39:48;;;;;;;3.00;2.15;;;5.50;67.00;;;;;;4973629;28;20077;-85
2022/04/17 03:42:15;;;;;;;3.88;2.30;;;5.50;66.60;;;;;;4971862;28;20027;-84
2022/04/17 03:44:41;;;;;;;3.75;2.70;;;5.40;66.80;;;;;;4973820;28;20027;-86
2022/04/17 03:47:07;;;;;;;5.43;2.60;;;5.40;66.20;;;;;;4973115;28;20031;-85
2022/04/17 03:49:33;;;;;;;3.30;2.53;;;5.40;66.20;;;;;;4973433;28;20442;-86
2022/04/17 03:52:00;;;;;;;3.58;2.50;;;5.40;67.10;;;;;;4971836;28;20474;-85
2022/04/17 03:54:26;;;;;;;4.18;2.20;;;5.40;66.40;;;;;;4987036;23;20045;-88
2022/04/17 03:56:52;;;;;;;3.47;2.67;;;5.40;66.80;;;;;;4973010;28;20023;-88
2022/04/17 03:59:18;;;;;;;2.80;2.50;;;5.40;66.40;;;;;;4965744;28;20037;-88
2022/04/17 04:01:46;;;;;;;3.97;2.33;;;5.30;66.80;;;;;;4972850;28;20106;-88
2022/04/17 04:04:12;;;;;;;4.15;2.20;;;5.30;66.40;;;;;;4972981;28;20030;-88
2022/04/17 04:06:37;;;;;;;5.00;2.75;;;5.40;66.70;;;;;;4973223;28;20041;-88
2022/04/17 04:09:03;;;;;;;3.90;2.38;;;5.30;66.80;;;;;;4973304;28;20489;-89
2022/04/17 04:11:29;;;;;;;4.57;2.33;;;5.30;66.70;;;;;;4972853;28;20027;-88
2022/04/17 04:13:54;;;;;;;9.00;2.67;;;5.30;67.30;;;;;;4973475;28;20509;-87
2022/04/17 04:16:20;;;;;;;3.85;2.60;;;5.30;66.90;;;;;;4972939;28;20387;-89
2022/04/17 04:18:45;;;;;;;3.80;2.55;;;5.30;67.10;;;;;;4971679;28;20038;-89
2022/04/17 04:21:11;;;;;;;3.70;2.50;;;5.20;67.30;;;;;;4975004;28;20019;-88
2022/04/17 04:23:37;;;;;;;4.47;2.55;;;5.20;67.30;;;;;;4979271;28;20014;-89
2022/04/17 04:26:03;;;;;;;4.32;2.30;;;5.20;67.50;;;;;;4979393;28;20026;-89
2022/04/17 04:28:34;;;;;;;5.40;2.90;;;5.20;67.60;;;;;;4979046;28;20105;-91
2022/04/17 04:31:07;;;;;;;5.15;2.33;;;5.10;67.80;;;;;;4961725;28;20038;-89
2022/04/17 04:33:38;;;;;;;5.10;2.45;;;5.20;67.50;;;;;;4979648;28;20043;-89
2022/04/17 04:36:06;;;;;;;3.53;2.50;;;5.20;67.40;;;;;;4979558;28;20484;-91
2022/04/17 04:38:33;;;;;;;5.45;2.10;;;5.10;67.50;;;;;;4979062;28;20027;-89
2022/04/17 04:41:01;;;;;;;6.03;3.08;;;5.10;67.60;;;;;;4979195;28;20027;-87
2022/04/17 04:43:27;;;;;;;4.18;2.60;;;5.10;67.90;;;;;;4979176;28;20451;-88
2022/04/17 04:46:08;;;;;;;4.82;3.13;;;5.10;67.80;;;;;;4979353;28;20042;-87
2022/04/17 04:51:19;;;;;;;5.35;2.67;;;5.10;67.80;;;;;;4979267;28;20073;-89
2022/04/17 04:53:45;;;;;;;4.97;3.25;;;5.10;67.60;;;;;;4979278;28;20054;-89
2022/04/17 04:56:13;;;;;;;5.10;2.58;;;5.10;67.50;;;;;;4979665;28;20558;-87
2022/04/17 04:58:38;;;;;;;5.47;2.58;;;5.10;67.70;;;;;;4961817;28;20113;-89
2022/04/17 05:01:04;;;;;;;4.82;2.30;;;5.10;67.70;;;;;;4979319;28;20069;-90
2022/04/17 05:03:30;;;;;;;4.50;2.55;;;5.20;67.40;;;;;;4973131;28;20074;-88
2022/04/17 05:05:55;;;;;;;5.28;3.33;;;5.20;67.40;;;;;;4979081;28;20575;-89
2022/04/17 05:08:21;;;;;;;8.55;2.70;;;5.20;67.30;;;;;;4978884;28;20031;-87
2022/04/17 05:10:49;;;;;;;5.25;2.70;;;5.20;67.40;;;;;;4978846;28;20054;-90
2022/04/17 05:13:17;;;;;;;5.40;3.03;;;5.20;67.30;;;;;;4977905;28;20030;-88
2022/04/17 05:15:42;;;;;;;5.47;2.75;;;5.20;67.30;;;;;;4979071;28;20023;-88
2022/04/17 05:18:08;;;;;;;3.67;2.63;;;5.30;67.10;;;;;;4978865;28;20399;-89
2022/04/17 05:20:35;;;;;;;6.25;2.85;;;5.30;67.10;;;;;;4978610;28;20078;-89
2022/04/17 05:23:15;;;;;;;4.82;2.75;;;5.30;67.40;;;;;;4961690;28;20023;-88
2022/04/17 05:25:42;;;;;;;4.55;2.65;;;5.30;67.60;;;;;;4963355;28;20027;-88
2022/04/17 05:28:10;;;;;;;4.32;2.60;;;5.30;67.40;;;;;;4977509;28;20034;-89
2022/04/17 05:30:36;;;;;;;4.35;2.63;;;5.30;67.70;;;;;;4965432;28;20030;-88
2022/04/17 05:33:01;;;;;;;3.15;2.50;;;5.40;67.50;;;;;;4978199;28;20030;-87
2022/04/17 05:35:27;;;;;;;6.18;2.90;;;5.40;67.40;;;;;;4996870;28;20011;-92
2022/04/17 05:37:53;;;;;;;2.70;2.50;;;5.40;67.30;;;;;;4977421;28;20038;-88
2022/04/17 05:40:18;;;;;;;3.10;2.40;;;5.50;66.90;;;;;;4986471;28;20483;-89
2022/04/17 05:42:47;;;;;;;3.35;2.70;;;5.50;66.70;;;;;;4977479;28;20026;-88
2022/04/17 05:45:12;;;;;;;6.15;2.80;;;5.50;66.80;;;;;;4976776;28;20027;-88
2022/04/17 05:47:38;;;;;;;3.60;2.72;;;5.50;66.20;;;;;;4959647;28;20525;-87
2022/04/17 05:50:05;;;;;;;3.58;2.90;;;5.60;65.80;;;;;;4976248;28;20041;-88
2022/04/17 05:52:31;;;;;;;5.50;2.85;;;5.70;65.80;;;;;;4959705;28;20038;-89
2022/04/17 05:55:08;;;;;;;3.38;2.78;;;5.70;65.80;;;;;;4959413;28;20039;-89
2022/04/17 05:57:38;;;;;;;8.90;2.67;;;5.70;65.30;;;;;;4971872;28;20031;-89
2022/04/17 06:00:14;;;;;;;3.47;2.70;;;5.80;65.20;;;;;;4976240;28;20027;-89
2022/04/17 06:02:40;;;;;;;3.72;2.83;;;5.80;65.40;;;;;;4978024;28;20431;-89
2022/04/17 06:05:08;;;;;;;5.57;2.80;;;5.80;64.60;;;;;;4976703;28;20054;-89
2022/04/17 06:07:51;;;;;;;4.47;2.67;;;5.90;64.60;;;;;;4976805;28;20471;-89
2022/04/17 06:10:16;;;;;;;4.18;2.90;;;6.00;64.00;;;;;;4978032;28;20049;-86
2022/04/17 06:12:42;;;;;;;3.10;2.50;;;6.00;64.30;;;;;;4976766;28;20121;-88
2022/04/17 06:15:16;;;;;;;5.10;2.72;;;6.10;64.10;;;;;;4978178;28;20027;-89
2022/04/17 06:17:58;;;;;;;5.07;2.75;;;6.10;64.00;;;;;;4977462;28;20081;-89
2022/04/17 06:20:24;;;;;;;5.63;2.60;;;6.20;63.60;;;;;;4977065;28;20023;-89
2022/04/17 06:22:52;;;;;;;2.88;1.98;;;6.40;62.40;;;;;;4976995;28;20336;-88
2022/04/17 06:25:25;;;;;;;3.95;2.60;;;6.40;62.60;;;;;;4977097;28;20475;-89
2022/04/17 06:27:51;;;;;;;3.40;2.60;;;6.50;62.90;;;;;;4976815;28;20035;-88
2022/04/17 06:30:22;;;;;;;5.85;2.88;;;6.60;62.40;;;;;;4976870;28;20431;-88
2022/04/17 06:32:49;;;;;;;4.35;2.47;;;6.60;61.80;;;;;;4976593;28;20150;-87
2022/04/17 06:35:22;;;;;;;3.78;2.70;;;6.60;61.80;;;;;;4976348;28;20173;-88
2022/04/17 06:37:54;;;;;;;3.78;2.30;;;6.60;61.90;;;;;;4977067;28;20058;-89
2022/04/17 06:40:31;;;;;;;8.25;2.10;;;6.80;61.50;;;;;;4975976;28;20118;-89
2022/04/17 06:43:37;;;;;;;6.72;2.80;;;6.90;61.40;;;;;;4975583;28;20121;-88
2022/04/17 06:46:12;;;;;;;6.60;2.53;;;7.00;60.10;;;;;;4974919;28;20026;-89
2022/04/17 06:48:40;;;;;;;4.13;2.45;;;7.00;59.60;;;;;;4972494;28;20038;-88
2022/04/17 06:51:22;;;;;;;3.75;2.40;;;6.90;59.30;;;;;;4974576;28;20023;-88
2022/04/17 06:53:48;;;;;;;3.20;2.22;;;7.00;60.10;;;;;;4974559;28;20034;-89
2022/04/17 06:56:24;;;;;;;4.25;2.40;;;7.10;59.70;;;;;;4975163;28;20119;-88
2022/04/17 06:59:05;;;;;;;4.13;2.10;;;7.20;59.40;;;;;;4973608;28;20039;-89
2022/04/17 07:01:43;;;;;;;5.03;2.28;;;7.20;59.20;;;;;;4973144;28;20027;-89
2022/04/17 07:07:58;;;;;;;5.50;2.35;;;7.40;59.20;;;;;;4955148;28;20039;-89
2022/04/17 07:10:39;;;;;;;4.00;2.30;;;7.50;58.90;;;;;;4939438;29;20054;-88
2022/04/17 07:13:18;;;;;;;3.28;1.95;;;7.50;58.70;;;;;;4958253;28;20051;-89
2022/04/17 07:15:52;;;;;;;3.67;2.28;;;7.60;58.70;;;;;;4941070;29;20035;-89
2022/04/17 07:18:24;;;;;;;3.70;2.20;;;7.70;58.30;;;;;;4966371;28;20023;-89
2022/04/17 07:21:23;;;;;;;2.58;2.20;;;7.80;57.30;;;;;;4959168;28;20030;-90
2022/04/17 07:24:05;;;;;;;4.10;2.05;;;7.80;57.40;;;;;;4959401;28;20031;-89
2022/04/17 07:26:31;;;;;;;2.90;1.90;;;7.90;56.80;;;;;;4959478;28;20058;-89
2022/04/17 07:28:59;;;;;;;3.92;2.10;;;7.90;56.20;;;;;;4976647;28;20371;-89
2022/04/17 07:31:30;;;;;;;5.10;2.30;;;8.00;57.30;;;;;;4958685;28;20027;-88
2022/04/17 07:34:00;;;;;;;5.50;1.90;;;8.10;55.30;;;;;;4973826;28;20031;-90
2022/04/17 07:36:25;;;;;;;3.85;2.40;;;8.10;55.60;;;;;;4967783;28;20007;-90
2022/04/17 07:38:51;;;;;;;3.72;1.90;;;8.20;55.50;;;;;;4975735;28;20039;-87
2022/04/17 07:41:17;;;;;;;2.65;1.75;;;8.30;55.10;;;;;;4956109;28;20027;-89
2022/04/17 07:43:42;;;;;;;2.60;1.90;;;8.30;54.80;;;;;;4970791;28;20010;-91
2022/04/17 07:46:08;;;;;;;3.47;2.17;;;8.30;55.20;;;;;;4979545;28;20415;-89
2022/04/17 07:48:36;;;;;;;2.92;1.95;;;8.40;55.10;;;;;;4956142;28;20479;-88
2022/04/17 07:51:02;;;;;;;8.02;2.00;;;8.50;54.60;;;;;;4973586;28;20027;-89
2022/04/17 07:53:27;;;;;;;3.53;1.90;;;8.60;54.60;;;;;;4955873;28;20031;-89
2022/04/17 07:55:53;;;;;;;9.52;2.30;;;8.60;54.20;;;;;;4973355;28;20399;-89
2022/04/17 07:58:33;;;;;;;3.33;1.95;;;8.60;55.00;;;;;;4973221;28;20042;-90
2022/04/17 08:00:59;;;;;;;4.70;1.95;;;8.70;54.10;;;;;;4973435;28;20086;-89
2022/04/17 08:06:01;;;;;;;2.60;1.48;;;8.80;53.50;;;;;;4973234;28;20019;-89
2022/04/17 08:08:28;;;;;;;3.92;1.65;;;9.00;54.40;;;;;;4973052;28;20026;-88
2022/04/17 08:10:54;;;;;;;2.03;1.70;;;9.10;54.00;;;;;;4971462;28;20399;-88
2022/04/17 08:13:19;;;;;;;3.88;1.92;;;9.30;53.90;;;;;;4973354;28;20030;-89
2022/04/17 08:15:45;;;;;;;3.88;1.88;;;9.30;53.10;;;;;;4972966;28;20026;-88
2022/04/17 08:18:10;;;;;;;2.47;1.70;;;9.30;51.90;;;;;;4972527;28;20100;-87
2022/04/17 08:20:36;;;;;;;5.65;2.70;;;9.30;52.40;;;;;;4972808;28;20018;-89
2022/04/17 08:23:04;;;;;;;3.17;1.70;;;9.40;52.80;;;;;;4973108;28;20106;-89
2022/04/17 08:25:30;;;;;;;1.90;1.70;;;9.50;52.70;;;;;;4972912;28;20075;-88
2022/04/17 08:27:56;;;;;;;2.22;1.70;;;9.60;52.00;;;;;;4972894;28;20114;-90
2022/04/17 08:30:26;;;;;;;1.75;1.55;;;9.70;51.50;;;;;;4971916;28;20026;-89
2022/04/17 08:32:53;;;;;;;3.60;1.60;;;9.80;51.10;;;;;;4955694;28;20074;-89
2022/04/17 08:35:19;;;;;;;2.38;1.90;;;9.90;51.10;;;;;;4956220;28;20029;-89
2022/04/17 08:37:45;;;;;;;2.88;1.70;;;10.00;51.50;;;;;;4973489;28;20384;-89
2022/04/17 08:40:12;;;;;;;3.75;2.17;;;10.10;50.70;;;;;;4960515;28;20023;-88
2022/04/17 08:42:38;;;;;;;2.85;1.40;;;10.20;50.90;;;;;;4981224;28;20360;-87
2022/04/17 08:45:11;;;;;;;6.35;1.83;;;10.40;49.80;;;;;;4969092;28;20104;-89
2022/04/17 08:47:41;;;;;;;2.45;1.90;;;10.60;48.80;;;;;;4979038;28;20117;-89
2022/04/17 08:50:12;;;;;;;4.18;1.85;;;10.70;49.10;;;;;;4963588;28;20034;-87
2022/04/17 08:52:41;;;;;;;4.85;2.17;;;10.80;49.10;;;;;;4979974;28;20027;-89
2022/04/17 08:55:08;;;;;;;4.55;1.88;;;10.80;48.70;;;;;;4954608;28;20042;-88
2022/04/17 08:57:43;;;;;;;1.88;1.40;;;11.00;48.10;;;;;;4955095;28;20487;-88
2022/04/17 09:00:11;;;;;;;4.53;1.50;;;11.10;46.00;;;;;;4971518;28;20470;-88
2022/04/17 09:02:38;;;;;;;2.95;1.40;;;11.20;46.40;;;;;;4972270;28;20018;-88
2022/04/17 09:05:24;;;;;;;2.78;1.33;;;11.40;45.80;;;;;;4972212;28;20023;-88
2022/04/17 09:07:54;;;;;;;2.08;1.30;;;11.60;45.00;;;;;;4972723;28;20039;-87
2022/04/17 09:10:34;;;;;;;4.72;1.77;;;11.80;45.10;;;;;;4958467;28;20457;-87
2022/04/17 09:13:13;;;;;;;3.40;1.52;;;11.90;45.30;;;;;;4976050;28;20038;-89
2022/04/17 09:15:49;;;;;;;3.00;1.70;;;12.00;44.90;;;;;;4976123;28;20026;-89
2022/04/17 09:18:26;;;;;;;2.80;1.40;;;11.90;44.80;;;;;;4975439;28;20023;-89
2022/04/17 09:21:02;;;;;;;1.88;1.33;;;12.10;44.50;;;;;;4975064;28;20038;-87
2022/04/17 09:24:01;;;;;;;1.60;1.30;;;12.30;44.40;;;;;;4975182;28;20133;-88
2022/04/17 09:26:34;;;;;;;1.75;1.10;;;12.40;44.50;;;;;;4956822;28;20027;-89
2022/04/17 09:29:26;;;;;;;1.77;1.30;;;12.50;44.60;;;;;;4958945;28;20057;-90
2022/04/17 09:32:07;;;;;;;2.92;1.73;;;12.60;43.50;;;;;;4975786;28;20166;-91
2022/04/17 09:34:58;;;;;;;3.05;1.50;;;12.70;43.50;;;;;;4965374;28;20034;-92
2022/04/17 09:37:29;;;;;;;1.25;1.10;;;12.80;43.50;;;;;;4975516;28;20364;-86
2022/04/17 09:40:07;;;;;;;1.75;1.30;;;13.00;43.90;;;;;;4993877;28;20021;-89
2022/04/17 09:42:32;;;;;;;2.47;1.15;;;13.20;42.80;;;;;;4976988;28;20035;-89
2022/04/17 09:45:13;;;;;;;3.17;1.40;;;13.30;42.50;;;;;;4976154;28;20042;-88
2022/04/17 09:47:42;;;;;;;3.60;1.65;;;13.30;42.30;;;;;;4975611;28;20015;-88
2022/04/17 09:50:34;;;;;;;3.13;1.38;;;13.30;41.70;;;;;;4957980;28;20118;-90
2022/04/17 09:53:09;;;;;;;1.83;1.40;;;13.30;42.50;;;;;;4958106;28;20035;-89
2022/04/17 09:56:10;;;;;;;3.70;1.30;;;13.40;41.90;;;;;;5046697;22;20055;-88
2022/04/17 09:58:48;;;;;;;2.67;1.52;;;13.70;40.30;;;;;;4975235;28;20031;-88
2022/04/17 10:01:19;;;;;;;1.50;1.30;;;13.90;40.70;;;;;;4974620;28;20019;-88
2022/04/17 10:03:58;;;;;;;1.73;1.40;;;13.90;39.80;;;;;;4974938;28;20023;-88
2022/04/17 10:06:30;;;;;;;1.45;1.10;;;14.00;39.90;;;;;;4957694;28;20030;-88
2022/04/17 10:09:07;;;;;;;3.15;1.38;;;14.30;39.70;;;;;;4975194;28;20046;-89
2022/04/17 10:15:48;;;;;;;;;;;;;;;;;;;;;
2022/04/17 10:18:21;;;;;;;2.22;1.27;;;14.70;38.40;;;;;;4963712;28;20039;-88
2022/04/17 10:20:55;;;;;;;1.58;1.15;;;15.00;37.90;;;;;;4974562;28;20031;-90
2022/04/17 10:23:29;;;;;;;2.05;1.35;;;15.20;38.20;;;;;;4975269;28;20027;-89
2022/04/17 10:25:58;;;;;;;2.13;0.98;;;15.30;36.90;;;;;;4974669;28;20478;-87
2022/04/17 10:28:35;;;;;;;3.10;1.20;;;15.50;36.60;;;;;;4957200;28;20037;-87
2022/04/17 10:31:37;;;;;;;1.00;0.90;;;15.50;36.00;;;;;;4958335;28;20023;-89
2022/04/17 10:34:27;;;;;;;;;;;15.60;35.90;;;;;;4967146;28;20046;-89
2022/04/17 10:37:05;;;;;;;2.40;1.00;;;15.90;35.10;;;;;;4957187;28;19961;-89
2022/04/17 10:39:54;;;;;;;2.42;1.00;;;15.80;35.90;;;;;;4956875;28;20023;-89
2022/04/17 10:42:48;;;;;;;3.95;1.15;;;15.90;33.40;;;;;;4956162;28;20387;-89
2022/04/17 10:45:16;;;;;;;0.98;0.85;;;16.00;34.00;;;;;;4956774;28;20035;-88
2022/04/17 10:47:42;;;;;;;2.28;1.00;;;16.30;33.40;;;;;;4974469;28;20031;-88
2022/04/17 10:50:13;;;;;;;3.15;1.33;;;16.20;33.80;;;;;;4974005;28;20102;-88
2022/04/17 10:52:46;;;;;;;1.80;0.90;;;16.50;33.80;;;;;;4969729;28;20034;-87
2022/04/17 10:55:15;;;;;;;2.50;0.93;;;16.70;33.30;;;;;;4973898;28;20514;-88
2022/04/17 10:57:56;;;;;;;5.95;2.20;;;16.90;33.40;;;;;;4972027;28;20050;-89
2022/04/17 11:00:37;;;;;;;2.15;1.08;;;16.90;34.50;;;;;;4972369;28;20031;-88
2022/04/17 11:03:37;;;;;;;1.83;1.13;;;16.90;34.40;;;;;;4964427;28;20035;-90
2022/04/17 11:09:44;;;;;;;2.00;1.20;;;16.90;33.00;;;;;;4974367;28;20050;-88
2022/04/17 11:12:27;;;;;;;1.30;1.00;;;17.00;33.50;;;;;;4955881;28;20047;-89
2022/04/17 11:15:24;;;;;;;4.60;0.88;;;17.30;32.20;;;;;;4973825;28;20035;-90
2022/04/17 11:17:50;;;;;;;1.60;1.05;;;17.30;31.70;;;;;;4972853;28;20395;-89
2022/04/17 11:20:25;;;;;;;2.53;1.02;;;17.20;33.30;;;;;;4968347;28;20030;-89
2022/04/17 11:22:57;;;;;;;0.77;0.70;;;17.00;33.40;;;;;;4973883;28;20106;-89
2022/04/17 11:25:55;;;;;;;;;;;17.10;33.20;;;;;;4956041;28;20031;-89
2022/04/17 11:28:36;;;;;;;3.15;0.80;;;17.10;33.50;;;;;;4933801;28;19906;-90
2022/04/17 11:31:35;;;;;;;1.48;0.82;;;17.00;33.50;;;;;;4975931;28;20047;-88
2022/04/17 11:34:15;;;;;;;1.75;0.73;;;17.10;33.00;;;;;;4988622;28;20158;-89
2022/04/17 11:36:56;;;;;;;1.23;1.00;;;17.10;32.80;;;;;;4972118;28;20034;-89
2022/04/17 11:39:31;;;;;;;2.17;1.05;;;17.50;32.20;;;;;;4973681;28;20484;-88
2022/04/17 11:42:01;;;;;;;1.52;0.88;;;17.70;32.10;;;;;;4972453;28;20110;-89
2022/04/17 11:44:30;;;;;;;2.03;0.88;;;18.00;31.90;;;;;;4973518;28;20019;-89
2022/04/17 11:46:57;;;;;;;1.73;1.10;;;18.00;30.90;;;;;;4973145;28;20027;-88
2022/04/17 11:49:33;;;;;;;1.83;1.23;;;18.10;29.50;;;;;;4973226;28;20027;-88
2022/04/17 11:52:27;;;;;;;1.70;0.90;;;17.90;30.40;;;;;;4955742;28;20030;-88
2022/04/17 11:54:55;;;;;;;1.77;0.90;;;17.80;30.90;;;;;;4973235;28;20042;-87
2022/04/17 11:57:20;;;;;;;2.40;0.93;;;18.00;30.10;;;;;;4955104;28;20043;-88
2022/04/17 11:59:57;;;;;;;1.02;0.80;;;18.10;30.70;;;;;;4973220;28;20076;-89
2022/04/17 12:02:27;;;;;;;1.20;0.70;;;18.40;30.40;;;;;;4972874;28;20027;-88
2022/04/17 12:05:20;;;;;;;2.50;0.80;;;18.50;30.00;;;;;;4976366;28;20303;-89
2022/04/17 12:08:09;;;;;;;2.15;0.95;;;18.40;29.10;;;;;;4995372;28;20027;-89
2022/04/17 12:10:40;;;;;;;1.33;0.80;;;18.30;29.90;;;;;;4973198;28;20110;-90
2022/04/17 12:13:19;;;;;;;1.53;0.80;;;18.10;30.40;;;;;;4950533;28;20054;-90
2022/04/17 12:15:47;;;;;;;1.27;1.10;;;18.00;30.30;;;;;;4972842;28;20049;-89
2022/04/17 12:18:20;;;;;;;1.40;0.80;;;18.00;30.50;;;;;;4955099;28;20137;-90
2022/04/17 12:21:18;;;;;;;1.48;0.80;;;17.90;30.30;;;;;;4972121;28;20050;-89
2022/04/17 12:23:47;;;;;;;0.68;0.60;;;17.70;30.80;;;;;;4946748;28;20129;-88
2022/04/17 12:26:12;;;;;;;1.75;0.82;;;17.50;31.40;;;;;;4955108;28;20456;-87
2022/04/17 12:28:59;;;;;;;1.52;0.70;;;17.60;31.80;;;;;;4955230;28;20027;-87
2022/04/17 12:31:58;;;;;;;1.20;0.90;;;17.90;31.40;;;;;;4955064;28;20031;-89
2022/04/17 12:34:34;;;;;;;;;;;;;;;;;;;;;
2022/04/17 12:37:22;;;;;;;2.40;0.85;;;17.80;30.70;;;;;;4972546;28;20483;-88
2022/04/17 12:39:48;;;;;;;1.08;0.80;;;18.10;30.90;;;;;;4955132;28;20027;-88
2022/04/17 12:42:18;;;;;;;4.65;0.70;;;18.30;30.90;;;;;;4972736;28;20110;-88
2022/04/17 12:45:00;;;;;;;1.23;0.68;;;18.30;30.90;;;;;;4976353;28;20043;-88
2022/04/17 12:47:25;;;;;;;1.45;1.15;;;18.40;31.70;;;;;;4976322;28;20023;-88
2022/04/17 12:50:06;;;;;;;1.08;0.77;;;18.60;31.00;;;;;;4959132;28;20406;-89
2022/04/17 12:52:37;;;;;;;1.42;0.70;;;18.70;29.30;;;;;;4959103;28;20031;-88
2022/04/17 12:55:18;;;;;;;3.00;0.73;;;18.60;30.00;;;;;;4959160;28;20042;-88
2022/04/17 12:57:59;;;;;;;1.35;0.65;;;18.70;30.60;;;;;;4975780;28;20147;-88
2022/04/17 13:00:30;;;;;;;2.80;0.77;;;18.90;30.70;;;;;;4958504;28;20023;-88
2022/04/17 13:03:16;;;;;;;0.73;0.63;;;18.80;31.90;;;;;;4976326;28;20033;-88
2022/04/17 13:06:07;;;;;;;0.70;0.65;;;18.80;31.00;;;;;;4975934;28;20041;-88
2022/04/17 13:08:32;;;;;;;1.60;0.80;;;19.10;29.90;;;;;;4976013;28;20447;-89
2022/04/17 13:10:58;;;;;;;2.72;0.90;;;18.90;29.60;;;;;;4975438;28;20031;-88
2022/04/17 13:13:39;;;;;;;1.30;0.80;;;18.90;29.60;;;;;;4976064;28;20418;-88
2022/04/17 13:16:08;;;;;;;0.60;0.60;;;18.90;29.20;;;;;;4975962;28;20027;-89
2022/04/17 13:18:34;;;;;;;3.08;0.70;;;19.00;29.30;;;;;;4958077;28;20130;-88
2022/04/17 13:21:03;;;;;;;4.25;2.05;;;19.10;27.80;;;;;;4957906;28;20023;-89
2022/04/17 13:23:33;;;;;;;2.17;1.10;;;19.20;29.40;;;;;;4958202;28;20069;-87
2022/04/17 13:26:02;;;;;;;2.15;0.75;;;19.20;29.30;;;;;;4976095;28;20031;-87
2022/04/17 13:28:34;;;;;;;0.73;0.73;;;19.40;29.50;;;;;;4966831;28;20115;-89
2022/04/17 13:31:00;;;;;;;1.13;0.70;;;20.10;29.90;;;;;;4979542;28;20093;-88
2022/04/17 13:33:25;;;;;;;4.80;1.15;;;20.30;29.10;;;;;;4958485;28;20479;-88
2022/04/17 13:35:59;;;;;;;1.10;0.73;;;20.50;29.00;;;;;;4975140;28;20035;-88
2022/04/17 13:38:31;;;;;;;1.40;0.75;;;20.40;28.70;;;;;;4957519;28;20038;-88